createdAt,value
2018-07-11T00:00:34.604Z,21.10
2018-07-11T00:03:04.558Z,21.10
2018-07-11T00:05:34.290Z,21.20
2018-07-11T00:08:04.291Z,21.40
2018-07-11T00:10:33.874Z,21.50
2018-07-11T00:13:04.202Z,21.40
2018-07-11T00:15:33.933Z,21.40
2018-07-11T00:18:05.025Z,21.40
2018-07-11T00:20:35.175Z,21.50
2018-07-11T00:23:05.989Z,21.20
2018-07-11T00:25:35.541Z,21.20
2018-07-11T00:28:05.206Z,21.30
2018-07-11T00:30:34.862Z,21.40
2018-07-11T00:33:04.449Z,21.50
2018-07-11T00:35:33.862Z,21.40
2018-07-11T00:38:03.973Z,21.30
2018-07-11T00:40:33.974Z,21.30
2018-07-11T00:43:04.228Z,21.30
2018-07-11T00:45:33.981Z,21.40
2018-07-11T00:48:04.670Z,21.40
2018-07-11T00:50:34.441Z,21.40
2018-07-11T00:53:05.087Z,21.50
2018-07-11T00:55:35.013Z,21.60
2018-07-11T00:58:05.646Z,21.10
2018-07-11T01:00:35.070Z,21.10
2018-07-11T01:03:05.341Z,21.20
2018-07-11T01:05:34.905Z,21.30
2018-07-11T01:08:04.613Z,21.40
2018-07-11T01:10:34.328Z,21.50
2018-07-11T01:13:04.120Z,21.50
2018-07-11T01:15:34.354Z,21.50
2018-07-11T01:18:04.280Z,21.50
2018-07-11T01:20:34.374Z,21.60
2018-07-11T01:23:03.793Z,21.50
2018-07-11T01:25:33.455Z,21.40
2018-07-11T01:28:02.874Z,21.40
2018-07-11T01:30:32.379Z,21.50
2018-07-11T01:33:01.881Z,21.50
2018-07-11T01:35:32.517Z,21.40
2018-07-11T01:38:03.147Z,21.30
2018-07-11T01:40:35.010Z,21.40
2018-07-11T01:43:05.502Z,21.40
2018-07-11T01:45:35.807Z,21.30
2018-07-11T01:48:06.671Z,21.30
2018-07-11T01:50:36.090Z,21.20
2018-07-11T01:53:05.982Z,21.20
2018-07-11T01:55:36.056Z,21.10
2018-07-11T01:58:06.016Z,21.10
2018-07-11T02:00:35.665Z,21.10
2018-07-11T02:03:05.370Z,21.10
2018-07-11T02:05:35.417Z,20.90
2018-07-11T02:08:06.045Z,20.90
2018-07-11T02:10:36.185Z,20.70
2018-07-11T02:13:05.473Z,20.70
2018-07-11T02:15:36.469Z,20.70
2018-07-11T02:18:06.284Z,20.60
2018-07-11T02:20:36.628Z,20.60
2018-07-11T02:23:06.448Z,20.50
2018-07-11T02:25:37.765Z,20.50
2018-07-11T02:28:07.492Z,20.40
2018-07-11T02:30:37.645Z,20.40
2018-07-11T02:33:08.854Z,20.30
2018-07-11T02:35:38.968Z,20.20
2018-07-11T02:38:09.335Z,20.30
2018-07-11T02:40:38.878Z,20.30
2018-07-11T02:43:08.661Z,20.30
2018-07-11T02:45:38.242Z,20.20
2018-07-11T02:48:07.821Z,20.10
2018-07-11T02:50:37.838Z,20.10
2018-07-11T02:53:07.072Z,20.20
2018-07-11T02:55:36.989Z,20.20
2018-07-11T02:58:06.204Z,20.20
2018-07-11T03:00:36.065Z,20.20
2018-07-11T03:03:06.299Z,20.10
2018-07-11T03:05:36.228Z,20.10
2018-07-11T03:08:06.216Z,20.00
2018-07-11T03:10:35.703Z,20.00
2018-07-11T03:13:05.576Z,19.90
2018-07-11T03:15:36.057Z,19.90
2018-07-11T03:18:05.495Z,19.80
2018-07-11T03:20:35.046Z,19.80
2018-07-11T03:23:04.804Z,19.70
2018-07-11T03:25:34.266Z,19.60
2018-07-11T03:28:04.848Z,19.60
2018-07-11T03:30:34.831Z,19.50
2018-07-11T03:33:04.586Z,19.50
2018-07-11T03:35:34.028Z,19.40
2018-07-11T03:38:03.814Z,19.30
2018-07-11T03:40:33.378Z,19.30
2018-07-11T03:43:03.907Z,19.30
2018-07-11T03:45:33.584Z,19.30
2018-07-11T03:48:02.890Z,19.30
2018-07-11T03:50:33.224Z,19.20
2018-07-11T03:53:03.088Z,19.20
2018-07-11T03:55:32.441Z,19.20
2018-07-11T03:58:02.877Z,19.20
2018-07-11T04:00:32.488Z,19.10
2018-07-11T04:03:01.987Z,19.10
2018-07-11T04:05:32.099Z,19.00
2018-07-11T04:08:02.024Z,19.00
2018-07-11T04:10:31.536Z,18.90
2018-07-11T04:13:00.921Z,18.90
2018-07-11T04:15:33.430Z,18.90
2018-07-11T04:18:02.826Z,18.90
2018-07-11T04:20:32.434Z,18.80
2018-07-11T04:23:02.498Z,18.80
2018-07-11T04:25:32.052Z,18.80
2018-07-11T04:28:01.829Z,18.80
2018-07-11T04:30:31.395Z,18.80
2018-07-11T04:33:01.409Z,18.80
2018-07-11T04:35:32.417Z,18.70
2018-07-11T04:38:03.772Z,18.70
2018-07-11T04:40:34.060Z,18.70
2018-07-11T04:43:04.025Z,18.70
2018-07-11T04:45:35.126Z,18.70
2018-07-11T04:48:05.171Z,18.70
2018-07-11T04:50:35.018Z,18.70
2018-07-11T04:53:05.862Z,18.60
2018-07-11T04:55:35.956Z,18.60
2018-07-11T04:58:05.346Z,18.50
2018-07-11T05:00:35.956Z,18.40
2018-07-11T05:03:05.901Z,18.40
2018-07-11T05:05:36.715Z,18.40
2018-07-11T05:08:06.779Z,18.30
2018-07-11T05:10:36.229Z,18.30
2018-07-11T05:13:05.844Z,18.30
2018-07-11T05:15:35.960Z,18.30
2018-07-11T05:18:07.386Z,18.20
2018-07-11T05:20:36.960Z,18.20
2018-07-11T05:23:07.684Z,18.20
2018-07-11T05:25:37.908Z,18.20
2018-07-11T05:28:07.620Z,18.20
2018-07-11T05:30:37.276Z,18.10
2018-07-11T05:33:07.939Z,18.10
2018-07-11T05:35:37.378Z,18.10
2018-07-11T05:38:07.042Z,18.10
2018-07-11T05:40:37.530Z,18.00
2018-07-11T05:43:07.345Z,18.00
2018-07-11T05:45:37.826Z,18.00
2018-07-11T05:48:07.652Z,18.00
2018-07-11T05:50:37.160Z,18.00
2018-07-11T05:53:06.628Z,18.00
2018-07-11T05:55:37.359Z,18.00
2018-07-11T05:58:06.769Z,18.00
2018-07-11T06:00:36.539Z,18.00
2018-07-11T06:03:05.860Z,18.00
2018-07-11T06:05:35.592Z,18.00
2018-07-11T06:08:07.156Z,18.00
2018-07-11T06:10:37.063Z,18.00
2018-07-11T06:13:06.550Z,18.00
2018-07-11T06:15:37.064Z,18.10
2018-07-11T06:18:06.830Z,18.00
2018-07-11T06:20:36.723Z,18.00
2018-07-11T06:23:07.157Z,18.10
2018-07-11T06:25:36.871Z,18.10
2018-07-11T06:28:06.102Z,18.10
2018-07-11T06:30:36.864Z,18.10
2018-07-11T06:33:07.709Z,18.10
2018-07-11T06:35:37.496Z,18.10
2018-07-11T06:38:08.458Z,18.10
2018-07-11T06:40:38.487Z,18.10
2018-07-11T06:43:08.194Z,18.10
2018-07-11T06:45:37.652Z,18.10
2018-07-11T06:48:07.416Z,18.10
2018-07-11T06:50:36.612Z,18.10
2018-07-11T06:53:05.877Z,18.10
2018-07-11T06:55:35.359Z,18.10
2018-07-11T06:58:04.719Z,18.10
2018-07-11T07:00:34.526Z,18.10
2018-07-11T07:03:04.015Z,18.20
2018-07-11T07:05:33.624Z,18.20
2018-07-11T07:08:03.336Z,18.20
2018-07-11T07:10:33.202Z,18.20
2018-07-11T07:13:03.408Z,18.20
2018-07-11T07:15:34.031Z,18.20
2018-07-11T07:18:04.151Z,18.20
2018-07-11T07:20:33.816Z,18.10
2018-07-11T07:23:03.374Z,18.20
2018-07-11T07:25:32.996Z,18.20
2018-07-11T07:28:02.572Z,18.20
2018-07-11T07:30:33.589Z,18.10
2018-07-11T07:33:04.032Z,18.10
2018-07-11T07:35:33.667Z,18.10
2018-07-11T07:38:03.348Z,18.20
2018-07-11T07:40:33.128Z,18.20
2018-07-11T07:43:03.388Z,18.10
2018-07-11T07:45:33.096Z,18.10
2018-07-11T07:48:04.623Z,18.20
2018-07-11T07:50:34.517Z,18.10
2018-07-11T07:53:04.189Z,18.10
2018-07-11T07:55:35.895Z,18.10
2018-07-11T07:58:05.727Z,18.20
2018-07-11T08:00:35.688Z,18.10
2018-07-11T08:03:05.351Z,18.10
2018-07-11T08:05:36.303Z,18.10
2018-07-11T08:08:05.923Z,18.10
2018-07-11T08:10:36.200Z,18.00
2018-07-11T08:13:06.509Z,18.00
2018-07-11T08:15:37.808Z,18.00
2018-07-11T08:18:08.035Z,17.90
2018-07-11T08:20:38.559Z,17.80
2018-07-11T08:26:29.702Z,17.80
2018-07-11T08:29:00.451Z,17.70
2018-07-11T08:31:30.415Z,17.60
2018-07-11T08:34:00.144Z,17.50
2018-07-11T08:36:40.224Z,17.40
2018-07-11T08:39:19.773Z,17.40
2018-07-11T08:41:59.579Z,17.30
2018-07-11T08:44:39.620Z,17.30
2018-07-11T08:47:17.989Z,17.30
2018-07-11T08:49:52.775Z,17.20
2018-07-11T08:52:26.898Z,17.20
2018-07-11T08:55:02.589Z,17.20
2018-07-11T08:57:32.619Z,17.10
2018-07-11T09:00:03.172Z,17.00
2018-07-11T09:02:33.251Z,17.00
2018-07-11T09:05:04.161Z,17.00
2018-07-11T09:07:36.786Z,17.00
2018-07-11T09:10:06.929Z,17.00
2018-07-11T09:12:37.331Z,16.90
2018-07-11T09:15:07.841Z,16.90
2018-07-11T09:17:38.069Z,16.90
2018-07-11T09:20:07.726Z,16.90
2018-07-11T09:22:38.125Z,16.80
2018-07-11T09:25:08.669Z,16.90
2018-07-11T09:27:37.837Z,16.90
2018-07-11T09:30:07.189Z,16.80
2018-07-11T09:32:36.719Z,16.70
2018-07-11T09:35:06.082Z,16.80
2018-07-11T09:37:36.108Z,16.70
2018-07-11T09:40:06.750Z,16.60
2018-07-11T09:42:36.357Z,16.60
2018-07-11T09:45:07.028Z,16.70
2018-07-11T09:47:36.668Z,16.60
2018-07-11T09:50:06.381Z,16.60
2018-07-11T09:52:35.783Z,16.60
2018-07-11T09:55:05.331Z,16.50
2018-07-11T09:57:36.715Z,16.50
2018-07-11T10:00:06.305Z,16.50
2018-07-11T10:02:35.867Z,16.40
2018-07-11T10:05:05.269Z,16.40
2018-07-11T10:07:34.943Z,16.40
2018-07-11T10:10:04.475Z,16.40
2018-07-11T10:12:33.915Z,16.40
2018-07-11T10:15:03.389Z,16.40
2018-07-11T10:17:33.413Z,16.40
2018-07-11T10:20:03.347Z,16.30
2018-07-11T10:22:33.018Z,16.30
2018-07-11T10:25:03.160Z,16.30
2018-07-11T10:27:33.989Z,16.30
2018-07-11T10:30:04.281Z,16.30
2018-07-11T10:32:34.691Z,16.20
2018-07-11T10:35:04.008Z,16.20
2018-07-11T10:37:33.239Z,16.20
2018-07-11T10:40:02.969Z,16.20
2018-07-11T10:42:33.080Z,16.20
2018-07-11T10:45:03.091Z,16.20
2018-07-11T10:47:33.111Z,16.20
2018-07-11T10:50:03.226Z,16.20
2018-07-11T10:52:33.236Z,16.20
2018-07-11T10:55:02.744Z,16.20
2018-07-11T10:57:32.289Z,16.20
2018-07-11T11:00:02.254Z,16.10
2018-07-11T11:02:31.880Z,16.10
2018-07-11T11:05:01.241Z,16.10
2018-07-11T11:07:30.731Z,16.10
2018-07-11T11:10:00.296Z,16.10
2018-07-11T11:12:29.795Z,16.10
2018-07-11T11:14:59.422Z,16.10
2018-07-11T11:17:29.767Z,16.00
2018-07-11T11:19:59.517Z,16.00
2018-07-11T11:22:30.012Z,16.00
2018-07-11T11:25:00.451Z,15.90
2018-07-11T11:27:30.189Z,15.90
2018-07-11T11:29:59.717Z,15.90
2018-07-11T11:32:29.228Z,15.90
2018-07-11T11:34:58.781Z,15.80
2018-07-11T11:37:28.386Z,15.80
2018-07-11T11:39:57.655Z,15.90
2018-07-11T11:42:28.286Z,15.80
2018-07-11T11:44:57.936Z,15.80
2018-07-11T11:47:27.770Z,15.90
2018-07-11T11:49:57.959Z,15.80
2018-07-11T11:52:27.397Z,15.70
2018-07-11T11:54:57.024Z,15.80
2018-07-11T11:57:26.556Z,15.80
2018-07-11T11:59:57.977Z,15.80
2018-07-11T12:02:30.509Z,15.70
2018-07-11T12:05:00.101Z,15.80
2018-07-11T12:07:29.741Z,15.80
2018-07-11T12:09:59.086Z,15.70
2018-07-11T12:12:29.388Z,15.70
2018-07-11T12:14:59.812Z,15.80
2018-07-11T12:17:30.129Z,15.80
2018-07-11T12:20:00.396Z,15.70
2018-07-11T12:22:29.849Z,15.80
2018-07-11T12:24:59.351Z,15.70
2018-07-11T12:27:29.215Z,15.70
2018-07-11T12:29:58.814Z,15.70
2018-07-11T12:32:28.517Z,15.70
2018-07-11T12:34:58.242Z,15.60
2018-07-11T12:37:28.668Z,15.70
2018-07-11T12:39:58.107Z,15.70
2018-07-11T12:42:28.026Z,15.70
2018-07-11T12:44:57.759Z,15.70
2018-07-11T12:47:27.599Z,15.70
2018-07-11T12:50:01.030Z,15.70
2018-07-11T12:52:30.869Z,15.70
2018-07-11T12:55:00.450Z,15.70
2018-07-11T12:57:31.300Z,15.70
2018-07-11T13:00:01.202Z,15.80
2018-07-11T13:02:31.361Z,15.70
2018-07-11T13:05:02.669Z,15.70
2018-07-11T13:07:32.587Z,15.80
2018-07-11T13:10:02.502Z,15.80
2018-07-11T13:12:31.755Z,15.80
2018-07-11T13:15:01.241Z,15.80
2018-07-11T13:17:31.008Z,15.90
2018-07-11T13:20:02.068Z,15.90
2018-07-11T13:22:31.428Z,15.90
2018-07-11T13:25:01.024Z,16.00
2018-07-11T13:27:30.676Z,16.00
2018-07-11T13:30:00.296Z,16.00
2018-07-11T13:32:29.974Z,16.00
2018-07-11T13:34:59.972Z,16.00
2018-07-11T13:37:29.867Z,16.10
2018-07-11T13:40:00.183Z,16.20
2018-07-11T13:42:29.942Z,16.20
2018-07-11T13:44:59.281Z,16.20
2018-07-11T13:47:28.926Z,16.20
2018-07-11T13:49:58.779Z,16.30
2018-07-11T13:52:28.868Z,16.40
2018-07-11T13:54:59.792Z,16.40
2018-07-11T14:00:05.834Z,16.50
2018-07-11T14:02:35.123Z,16.60
2018-07-11T14:05:04.656Z,16.70
2018-07-11T14:07:34.455Z,16.70
2018-07-11T14:10:04.271Z,16.80
2018-07-11T14:12:33.607Z,16.80
2018-07-11T14:15:04.115Z,16.90
2018-07-11T14:17:33.653Z,17.00
2018-07-11T14:20:03.237Z,17.10
2018-07-11T14:22:33.718Z,17.20
2018-07-11T14:25:03.262Z,17.20
2018-07-11T14:27:33.377Z,17.30
2018-07-11T14:30:02.931Z,17.40
2018-07-11T14:32:32.621Z,17.50
2018-07-11T14:35:02.341Z,17.50
2018-07-11T14:37:32.586Z,17.60
2018-07-11T14:40:02.499Z,17.70
2018-07-11T14:42:32.962Z,17.70
2018-07-11T14:45:03.113Z,17.70
2018-07-11T14:47:33.588Z,17.80
2018-07-11T14:50:03.331Z,17.80
2018-07-11T14:52:33.327Z,17.90
2018-07-11T14:55:03.085Z,18.00
2018-07-11T14:57:32.893Z,18.10
2018-07-11T15:00:03.277Z,18.30
2018-07-11T15:02:33.354Z,18.30
2018-07-11T15:05:02.961Z,18.40
2018-07-11T15:07:32.957Z,18.60
2018-07-11T15:10:02.707Z,18.70
2018-07-11T15:12:32.107Z,18.80
2018-07-11T15:15:01.731Z,19.00
2018-07-11T15:17:31.096Z,19.10
2018-07-11T15:20:01.287Z,19.20
2018-07-11T15:22:30.703Z,19.20
2018-07-11T15:25:00.820Z,19.30
2018-07-11T15:27:31.389Z,19.30
2018-07-11T15:30:00.649Z,19.40
2018-07-11T15:32:31.378Z,19.50
2018-07-11T15:35:00.737Z,19.60
2018-07-11T15:37:30.526Z,19.70
2018-07-11T15:40:01.384Z,19.80
2018-07-11T15:42:31.001Z,19.90
2018-07-11T15:45:01.145Z,20.00
2018-07-11T15:47:30.758Z,20.10
2018-07-11T15:50:00.617Z,20.30
2018-07-11T15:52:30.250Z,20.40
2018-07-11T15:54:59.940Z,20.50
2018-07-11T15:57:29.969Z,20.50
2018-07-11T16:00:00.437Z,20.60
2018-07-11T16:02:30.380Z,20.70
2018-07-11T16:05:00.478Z,20.80
2018-07-11T16:07:30.638Z,20.90
2018-07-11T16:10:01.187Z,21.00
2018-07-11T16:12:30.908Z,21.10
2018-07-11T16:15:00.275Z,21.20
2018-07-11T16:17:30.743Z,21.30
2018-07-11T16:20:00.198Z,21.30
2018-07-11T16:22:30.245Z,21.40
2018-07-11T16:24:59.817Z,21.40
2018-07-11T16:27:29.420Z,21.40
2018-07-11T16:29:59.085Z,21.50
2018-07-11T16:32:29.309Z,21.50
2018-07-11T16:34:59.058Z,21.60
2018-07-11T16:37:28.724Z,21.60
2018-07-11T16:39:58.583Z,21.80
2018-07-11T16:42:28.380Z,21.90
2018-07-11T16:44:58.543Z,22.00
2018-07-11T16:47:29.210Z,21.90
2018-07-11T16:50:00.072Z,22.00
2018-07-11T16:52:30.143Z,22.00
2018-07-11T16:55:00.381Z,22.10
2018-07-11T16:57:30.598Z,22.20
2018-07-11T17:00:00.305Z,22.30
2018-07-11T17:02:31.344Z,22.40
2018-07-11T17:05:01.270Z,22.60
2018-07-11T17:07:31.949Z,22.80
2018-07-11T17:10:02.285Z,23.00
2018-07-11T17:12:32.278Z,23.30
2018-07-11T17:15:05.471Z,23.60
2018-07-11T17:17:35.673Z,23.60
2018-07-11T17:20:05.561Z,23.70
2018-07-11T17:22:35.524Z,23.80
2018-07-11T17:25:05.592Z,23.90
2018-07-11T17:27:35.267Z,24.30
2018-07-11T17:30:05.921Z,25.00
2018-07-11T17:32:35.930Z,28.00
2018-07-11T17:35:05.381Z,30.30
2018-07-11T17:37:35.340Z,34.60
2018-07-11T17:40:05.466Z,36.60
2018-07-11T17:42:35.352Z,34.90
2018-07-11T17:45:05.284Z,35.20
2018-07-11T17:47:35.160Z,35.30
2018-07-11T17:50:06.328Z,35.80
2018-07-11T17:52:35.990Z,35.80
2018-07-11T17:55:05.594Z,38.50
2018-07-11T17:57:36.683Z,41.90
2018-07-11T18:00:06.607Z,44.30
2018-07-11T18:02:36.216Z,46.30
2018-07-11T18:05:07.322Z,47.30
2018-07-11T18:07:38.007Z,46.70
2018-07-11T18:10:08.907Z,46.70
2018-07-11T18:12:40.871Z,48.70
2018-07-11T18:15:11.169Z,48.70
2018-07-11T18:17:41.273Z,49.90
2018-07-11T18:20:11.605Z,50.70
2018-07-11T18:22:41.432Z,51.00
2018-07-11T18:25:11.092Z,51.60
2018-07-11T18:27:41.010Z,51.80
2018-07-11T18:30:11.053Z,51.60
2018-07-11T18:32:40.627Z,51.40
2018-07-11T18:35:10.349Z,50.70
2018-07-11T18:37:40.998Z,49.40
2018-07-11T18:40:11.443Z,47.60
2018-07-11T18:42:41.381Z,44.90
2018-07-11T18:45:11.376Z,41.80
2018-07-11T18:47:42.147Z,39.30
2018-07-11T18:50:12.276Z,37.50
2018-07-11T18:52:42.209Z,36.30
2018-07-11T18:55:13.135Z,34.90
2018-07-11T18:57:45.030Z,34.30
2018-07-11T19:00:15.209Z,33.50
2018-07-11T19:02:45.190Z,32.90
2018-07-11T19:05:16.817Z,32.10
2018-07-11T19:07:46.844Z,32.00
2018-07-11T19:10:17.509Z,31.40
2018-07-11T19:12:47.061Z,31.10
2018-07-11T19:15:16.935Z,30.80
2018-07-11T19:17:47.769Z,30.80
2018-07-11T19:20:18.694Z,31.00
2018-07-11T19:22:48.546Z,31.30
2018-07-11T19:25:18.522Z,31.30
2018-07-11T19:27:49.653Z,31.20
2018-07-11T19:30:20.564Z,31.20
2018-07-11T19:32:52.256Z,31.00
2018-07-11T19:35:22.295Z,30.90
2018-07-11T19:37:53.682Z,30.70
2018-07-11T19:40:25.009Z,30.70
2018-07-11T19:42:55.163Z,30.60
2018-07-11T19:45:25.451Z,30.70
2018-07-11T19:47:58.006Z,30.70
2018-07-11T19:50:28.742Z,30.80
2018-07-11T19:52:59.059Z,30.80
2018-07-11T19:55:29.488Z,31.00
2018-07-11T19:57:59.376Z,30.90
2018-07-11T20:00:28.986Z,30.80
2018-07-11T20:03:02.979Z,31.10
2018-07-11T20:05:33.453Z,30.90
2018-07-11T20:08:03.253Z,30.90
2018-07-11T20:10:33.840Z,30.70
2018-07-11T20:13:03.564Z,30.40
2018-07-11T20:15:34.740Z,30.10
2018-07-11T20:18:04.060Z,30.10
2018-07-11T20:20:33.456Z,30.30
2018-07-11T20:23:03.335Z,30.10
2018-07-11T20:25:33.059Z,29.90
2018-07-11T20:28:02.622Z,29.80
2018-07-11T20:30:33.976Z,29.30
2018-07-11T20:33:03.492Z,29.20
2018-07-11T20:35:33.837Z,28.80
2018-07-11T20:38:03.464Z,28.70
2018-07-11T20:40:33.184Z,28.60
2018-07-11T20:43:02.821Z,28.40
2018-07-11T20:45:32.638Z,28.40
2018-07-11T20:48:02.206Z,28.20
2018-07-11T20:50:31.425Z,28.20
2018-07-11T20:53:01.036Z,28.00
2018-07-11T20:55:31.534Z,27.80
2018-07-11T20:58:04.503Z,27.80
2018-07-11T21:03:41.371Z,27.40
2018-07-11T21:06:11.240Z,27.30
2018-07-11T21:08:43.060Z,27.30
2018-07-11T21:11:15.145Z,27.20
2018-07-11T21:13:45.358Z,27.20
2018-07-11T21:16:15.080Z,27.10
2018-07-11T21:18:44.788Z,27.10
2018-07-11T21:21:14.291Z,27.10
2018-07-11T21:23:43.476Z,27.10
2018-07-11T21:26:13.058Z,27.10
2018-07-11T21:28:43.056Z,27.10
2018-07-11T21:31:12.613Z,27.10
2018-07-11T21:33:42.866Z,27.10
2018-07-11T21:36:12.631Z,27.20
2018-07-11T21:38:42.317Z,27.30
2018-07-11T21:41:12.925Z,27.10
2018-07-11T21:43:42.816Z,26.90
2018-07-11T21:46:14.464Z,26.80
2018-07-11T21:48:43.850Z,26.80
2018-07-11T21:51:13.801Z,26.80
2018-07-11T21:53:43.012Z,26.70
2018-07-11T21:56:12.467Z,26.70
2018-07-11T21:58:42.193Z,26.70
2018-07-11T22:01:12.242Z,26.80
2018-07-11T22:03:43.313Z,26.80
2018-07-11T22:06:12.958Z,26.80
2018-07-11T22:08:42.316Z,26.90
2018-07-11T22:11:11.959Z,26.80
2018-07-11T22:13:42.104Z,26.80
2018-07-11T22:16:11.652Z,26.80
2018-07-11T22:18:41.294Z,26.80
2018-07-11T22:21:10.102Z,26.80
2018-07-11T22:23:38.591Z,26.80
2018-07-11T22:26:07.146Z,26.70
2018-07-11T22:28:36.270Z,26.80
2018-07-11T22:31:05.344Z,26.80
2018-07-11T22:33:33.899Z,26.90
2018-07-11T22:36:02.534Z,26.80
2018-07-11T22:38:31.489Z,26.80
2018-07-11T22:41:01.887Z,26.80
2018-07-11T22:43:30.500Z,26.70
2018-07-11T22:45:58.950Z,26.70
2018-07-11T22:48:28.639Z,26.60
2018-07-11T22:50:57.794Z,26.50
2018-07-11T22:53:26.661Z,26.40
2018-07-11T22:55:56.039Z,26.40
2018-07-11T22:58:24.536Z,26.40
2018-07-11T23:00:53.227Z,26.30
2018-07-11T23:03:21.818Z,26.20
2018-07-11T23:05:51.972Z,26.30
2018-07-11T23:08:20.734Z,26.40
2018-07-11T23:10:50.554Z,26.50
2018-07-11T23:13:19.720Z,26.50
2018-07-11T23:15:48.444Z,26.40
2018-07-11T23:18:18.513Z,26.50
2018-07-11T23:20:47.925Z,26.70
2018-07-11T23:23:16.594Z,26.70
2018-07-11T23:25:45.403Z,26.70
2018-07-11T23:28:14.106Z,26.60
2018-07-11T23:30:43.878Z,26.40
2018-07-11T23:33:12.666Z,26.40
2018-07-11T23:35:40.913Z,26.40
2018-07-11T23:38:09.705Z,26.40
2018-07-11T23:40:38.374Z,26.40
2018-07-11T23:43:06.894Z,26.40
2018-07-11T23:45:36.370Z,26.40
2018-07-11T23:48:06.039Z,26.40
2018-07-11T23:50:35.683Z,26.30
2018-07-11T23:53:04.349Z,26.30
2018-07-11T23:55:33.990Z,26.30
2018-07-11T23:58:04.692Z,26.30
